createdAt,value
2018-12-25T00:00:00.451Z,102358.31
2018-12-25T00:02:29.105Z,102360.09
2018-12-25T00:04:57.659Z,102361.47
2018-12-25T00:07:26.242Z,102366.81
2018-12-25T00:09:54.798Z,102359.75
2018-12-25T00:12:23.698Z,102353.61
2018-12-25T00:14:52.269Z,102356.75
2018-12-25T00:17:20.836Z,102358.61
2018-12-25T00:20:03.019Z,102370.60
2018-12-25T00:22:31.595Z,102370.60
2018-12-25T00:25:00.192Z,102362.16
2018-12-25T00:27:28.812Z,102366.14
2018-12-25T00:29:57.395Z,102365.25
2018-12-25T00:32:25.967Z,102355.08
2018-12-25T00:34:54.538Z,102350.26
2018-12-25T00:37:23.102Z,102361.31
2018-12-25T00:39:51.687Z,102349.38
2018-12-25T00:42:20.324Z,102347.56
2018-12-25T00:44:48.910Z,102344.47
2018-12-25T00:47:17.482Z,102343.63
2018-12-25T00:49:46.082Z,102344.52
2018-12-25T00:52:14.636Z,102349.38
2018-12-25T00:54:43.232Z,102346.28
2018-12-25T00:57:11.793Z,102352.88
2018-12-25T00:59:40.378Z,102343.59
2018-12-25T01:02:08.940Z,102356.05
2018-12-25T01:04:37.529Z,102352.08
2018-12-25T01:07:06.158Z,102344.95
2018-12-25T01:09:34.751Z,102340.58
2018-12-25T01:12:03.299Z,102347.66
2018-12-25T01:14:31.888Z,102353.40
2018-12-25T01:17:00.451Z,102350.31
2018-12-25T01:19:29.029Z,102368.05
2018-12-25T01:21:57.592Z,102368.44
2018-12-25T01:24:26.189Z,102365.83
2018-12-25T01:26:54.750Z,102363.62
2018-12-25T01:29:23.353Z,102366.76
2018-12-25T01:31:51.927Z,102366.67
2018-12-25T01:34:20.502Z,102365.43
2018-12-25T01:36:49.068Z,102369.42
2018-12-25T01:39:17.654Z,102363.23
2018-12-25T01:41:46.224Z,102367.16
2018-12-25T01:44:14.807Z,102359.64
2018-12-25T01:46:43.372Z,102362.78
2018-12-25T01:49:11.990Z,102363.67
2018-12-25T01:51:40.557Z,102365.92
2018-12-25T01:54:09.150Z,102364.11
2018-12-25T01:56:37.710Z,102363.22
2018-12-25T01:59:06.294Z,102353.98
2018-12-25T02:01:34.876Z,102354.42
2018-12-25T02:04:03.475Z,102357.52
2018-12-25T02:06:32.045Z,102358.45
2018-12-25T02:09:00.629Z,102353.98
2018-12-25T02:11:29.213Z,102342.48
2018-12-25T02:14:00.300Z,102349.52
2018-12-25T02:16:28.867Z,102348.72
2018-12-25T02:18:57.454Z,102358.49
2018-12-25T02:24:34.095Z,102350.09
2018-12-25T02:27:02.656Z,102352.30
2018-12-25T02:29:31.237Z,102348.80
2018-12-25T02:31:59.799Z,102344.38
2018-12-25T02:34:28.378Z,102340.36
2018-12-25T02:36:56.967Z,102336.38
2018-12-25T02:39:25.546Z,102334.24
2018-12-25T02:41:54.102Z,102334.73
2018-12-25T02:44:22.708Z,102339.16
2018-12-25T02:46:51.273Z,102337.83
2018-12-25T02:49:19.872Z,102338.67
2018-12-25T02:51:48.428Z,102332.08
2018-12-25T02:54:17.015Z,102335.66
2018-12-25T02:56:45.642Z,102335.65
2018-12-25T02:59:14.233Z,102330.38
2018-12-25T03:01:42.788Z,102331.27
2018-12-25T03:07:05.546Z,102328.61
2018-12-25T03:09:53.247Z,102322.41
2018-12-25T03:12:21.814Z,102325.03
2018-12-25T03:14:50.400Z,102322.86
2018-12-25T03:17:18.948Z,102311.35
2018-12-25T03:19:47.583Z,102316.70
2018-12-25T03:22:16.150Z,102313.16
2018-12-25T03:25:03.855Z,102314.48
2018-12-25T03:27:32.421Z,102317.14
2018-12-25T03:30:01.021Z,102312.31
2018-12-25T03:32:29.586Z,102310.06
2018-12-25T03:34:58.193Z,102306.52
2018-12-25T03:37:26.747Z,102312.31
2018-12-25T03:39:55.318Z,102318.03
2018-12-25T03:42:23.919Z,102312.72
2018-12-25T03:44:52.486Z,102306.11
2018-12-25T03:47:21.070Z,102310.54
2018-12-25T03:49:49.643Z,102304.34
2018-12-25T03:52:18.240Z,102299.92
2018-12-25T03:54:46.887Z,102294.58
2018-12-25T03:57:15.478Z,102297.27
2018-12-25T04:00:03.151Z,102303.91
2018-12-25T04:02:31.735Z,102301.69
2018-12-25T04:05:00.322Z,102300.36
2018-12-25T04:07:48.009Z,102301.25
2018-12-25T04:10:16.565Z,102293.28
2018-12-25T04:12:45.175Z,102292.43
2018-12-25T04:15:13.729Z,102286.70
2018-12-25T04:17:42.299Z,102287.16
2018-12-25T04:20:19.513Z,102274.76
2018-12-25T04:22:41.181Z,102280.06
2018-12-25T04:25:09.749Z,102283.14
2018-12-25T04:27:38.331Z,102282.69
2018-12-25T04:30:27.712Z,102283.61
2018-12-25T04:32:56.288Z,102279.62
2018-12-25T04:35:24.854Z,102282.31
2018-12-25T04:37:53.495Z,102282.25
2018-12-25T04:40:22.071Z,102281.88
2018-12-25T04:42:50.666Z,102281.80
2018-12-25T04:45:19.225Z,102286.30
2018-12-25T04:47:47.807Z,102284.50
2018-12-25T04:50:16.361Z,102284.02
2018-12-25T04:52:44.945Z,102297.33
2018-12-25T04:55:13.498Z,102298.66
2018-12-25T04:57:42.103Z,102296.41
2018-12-25T05:00:10.663Z,102291.55
2018-12-25T05:02:39.249Z,102299.92
2018-12-25T05:05:07.818Z,102303.02
2018-12-25T05:07:36.463Z,102290.52
2018-12-25T05:10:25.873Z,102298.52
2018-12-25T05:12:54.460Z,102298.55
2018-12-25T05:15:23.032Z,102298.08
2018-12-25T05:17:51.625Z,102309.58
2018-12-25T05:20:20.209Z,102309.10
2018-12-25T05:23:08.145Z,102306.89
2018-12-25T05:28:24.155Z,102311.28
2018-12-25T05:30:52.790Z,102314.37
2018-12-25T05:33:21.373Z,102308.63
2018-12-25T05:35:49.955Z,102319.64
2018-12-25T05:38:18.539Z,102321.37
2018-12-25T05:40:47.104Z,102325.39
2018-12-25T05:43:15.702Z,102334.64
2018-12-25T05:45:44.257Z,102325.31
2018-12-25T05:48:12.849Z,102326.20
2018-12-25T05:50:46.575Z,102325.76
2018-12-25T05:53:11.718Z,102331.43
2018-12-25T05:55:40.268Z,102326.60
2018-12-25T05:58:08.850Z,102319.48
2018-12-25T06:00:37.403Z,102320.41
2018-12-25T06:03:05.972Z,102320.41
2018-12-25T06:05:34.560Z,102319.56
2018-12-25T06:08:03.117Z,102319.09
2018-12-25T06:10:31.706Z,102322.18
2018-12-25T06:13:00.250Z,102321.70
2018-12-25T06:15:28.837Z,102317.72
2018-12-25T06:17:57.392Z,102318.20
2018-12-25T06:20:25.986Z,102318.64
2018-12-25T06:22:54.549Z,102319.53
2018-12-25T06:25:23.139Z,102311.97
2018-12-25T06:27:51.691Z,102316.43
2018-12-25T06:30:20.375Z,102315.59
2018-12-25T06:32:48.929Z,102323.52
2018-12-25T06:35:17.506Z,102311.16
2018-12-25T06:37:46.089Z,102316.47
2018-12-25T06:40:14.671Z,102306.33
2018-12-25T06:42:43.239Z,102308.52
2018-12-25T06:45:11.822Z,102296.09
2018-12-25T06:47:40.396Z,102293.91
2018-12-25T06:50:08.974Z,102295.72
2018-12-25T06:52:37.531Z,102280.64
2018-12-25T06:55:06.114Z,102281.13
2018-12-25T06:57:34.672Z,102286.47
2018-12-25T07:00:23.898Z,102290.05
2018-12-25T07:02:52.461Z,102287.83
2018-12-25T07:05:21.076Z,102292.25
2018-12-25T07:07:49.649Z,102286.54
2018-12-25T07:10:18.268Z,102269.28
2018-12-25T07:12:46.883Z,102271.49
2018-12-25T07:15:34.786Z,102270.61
2018-12-25T07:18:03.343Z,102260.44
2018-12-25T07:20:31.923Z,102257.34
2018-12-25T07:23:00.535Z,102262.68
2018-12-25T07:25:29.090Z,102260.47
2018-12-25T07:27:57.674Z,102254.27
2018-12-25T07:30:26.230Z,102253.83
2018-12-25T07:32:54.806Z,102253.42
2018-12-25T07:35:23.360Z,102252.56
2018-12-25T07:37:51.965Z,102247.25
2018-12-25T07:40:20.522Z,102248.99
2018-12-25T07:42:49.116Z,102247.16
2018-12-25T07:45:17.667Z,102242.80
2018-12-25T07:47:46.264Z,102241.91
2018-12-25T07:50:14.839Z,102238.84
2018-12-25T07:52:43.421Z,102231.73
2018-12-25T07:55:12.008Z,102226.87
2018-12-25T07:57:40.576Z,102230.41
2018-12-25T08:00:28.606Z,102241.95
2018-12-25T08:02:57.196Z,102236.19
2018-12-25T08:05:25.754Z,102238.75
2018-12-25T08:07:54.335Z,102252.09
2018-12-25T08:10:22.890Z,102249.91
2018-12-25T08:12:51.474Z,102257.44
2018-12-25T08:15:20.030Z,102254.30
2018-12-25T08:17:48.624Z,102253.39
2018-12-25T08:20:17.201Z,102256.96
2018-12-25T08:22:45.784Z,102266.31
2018-12-25T08:25:14.371Z,102258.80
2018-12-25T08:28:03.604Z,102260.56
2018-12-25T08:30:32.164Z,102264.07
2018-12-25T08:33:00.754Z,102260.56
2018-12-25T08:35:29.306Z,102265.46
2018-12-25T08:37:57.891Z,102271.25
2018-12-25T08:40:26.452Z,102266.83
2018-12-25T08:42:55.035Z,102264.17
2018-12-25T08:45:23.599Z,102262.88
2018-12-25T08:47:52.208Z,102250.95
2018-12-25T08:50:20.770Z,102252.27
2018-12-25T08:52:49.376Z,102250.09
2018-12-25T08:55:17.937Z,102246.58
2018-12-25T08:58:05.793Z,102248.37
2018-12-25T09:00:34.377Z,102239.52
2018-12-25T09:03:02.936Z,102249.70
2018-12-25T09:05:31.522Z,102254.63
2018-12-25T09:08:00.107Z,102263.45
2018-12-25T09:10:28.681Z,102263.02
2018-12-25T09:12:57.246Z,102265.66
2018-12-25T09:15:25.837Z,102268.32
2018-12-25T09:17:54.409Z,102275.91
2018-12-25T09:20:23.087Z,102267.05
2018-12-25T09:22:51.635Z,102268.87
2018-12-25T09:25:20.267Z,102278.58
2018-12-25T09:27:48.822Z,102274.18
2018-12-25T09:30:17.413Z,102264.02
2018-12-25T09:32:45.969Z,102262.29
2018-12-25T09:35:14.556Z,102264.52
2018-12-25T09:37:43.109Z,102256.52
2018-12-25T09:40:11.688Z,102258.31
2018-12-25T09:42:40.276Z,102249.95
2018-12-25T09:45:08.865Z,102249.04
2018-12-25T09:47:37.438Z,102247.77
2018-12-25T09:50:06.028Z,102259.28
2018-12-25T09:52:34.605Z,102256.65
2018-12-25T09:55:03.201Z,102245.99
2018-12-25T09:57:31.774Z,102242.94
2018-12-25T10:00:00.364Z,102251.36
2018-12-25T10:02:28.960Z,102243.36
2018-12-25T10:04:57.559Z,102254.03
2018-12-25T10:07:26.175Z,102248.28
2018-12-25T10:09:54.710Z,102258.49
2018-12-25T10:12:23.306Z,102250.09
2018-12-25T10:14:51.899Z,102253.20
2018-12-25T10:17:20.479Z,102253.63
2018-12-25T10:19:49.130Z,102246.55
2018-12-25T10:22:17.714Z,102248.78
2018-12-25T10:24:46.285Z,102257.18
2018-12-25T10:27:14.867Z,102252.30
2018-12-25T10:29:43.430Z,102250.56
2018-12-25T10:32:12.006Z,102243.48
2018-12-25T10:34:40.563Z,102248.81
2018-12-25T10:37:09.145Z,102240.81
2018-12-25T10:39:37.710Z,102243.91
2018-12-25T10:42:06.294Z,102258.95
2018-12-25T10:44:55.665Z,102254.57
2018-12-25T10:47:24.269Z,102249.26
2018-12-25T10:49:52.835Z,102258.56
2018-12-25T10:52:21.420Z,102256.36
2018-12-25T10:54:49.994Z,102250.62
2018-12-25T10:57:18.590Z,102255.02
2018-12-25T10:59:47.160Z,102258.59
2018-12-25T11:02:15.747Z,102255.02
2018-12-25T11:04:44.309Z,102245.34
2018-12-25T11:07:12.894Z,102250.67
2018-12-25T11:09:41.471Z,102254.20
2018-12-25T11:12:10.090Z,102241.80
2018-12-25T11:14:38.665Z,102227.14
2018-12-25T11:17:07.260Z,102250.22
2018-12-25T11:19:35.831Z,102252.00
2018-12-25T11:22:23.631Z,102241.36
2018-12-25T11:24:52.190Z,102229.36
2018-12-25T11:27:20.782Z,102237.83
2018-12-25T11:29:49.347Z,102236.47
2018-12-25T11:32:17.947Z,102234.69
2018-12-25T11:34:46.511Z,102235.12
2018-12-25T11:37:15.096Z,102245.31
2018-12-25T11:39:43.666Z,102239.12
2018-12-25T11:42:12.247Z,102242.66
2018-12-25T11:44:40.836Z,102240.87
2018-12-25T11:47:09.418Z,102241.33
2018-12-25T11:49:57.378Z,102245.34
2018-12-25T11:54:59.757Z,102248.03
2018-12-25T11:57:28.344Z,102249.80
2018-12-25T11:59:56.915Z,102252.91
2018-12-25T12:02:25.509Z,102246.68
2018-12-25T12:04:54.067Z,102251.13
2018-12-25T12:07:22.650Z,102248.91
2018-12-25T12:09:51.301Z,102243.13
2018-12-25T12:12:40.653Z,102248.92
2018-12-25T12:15:09.278Z,102247.58
2018-12-25T12:17:37.838Z,102244.46
2018-12-25T12:20:27.180Z,102232.92
2018-12-25T12:22:55.761Z,102242.69
2018-12-25T12:25:24.382Z,102240.04
2018-12-25T12:27:52.914Z,102240.92
2018-12-25T12:30:21.494Z,102247.13
2018-12-25T12:32:50.094Z,102247.13
2018-12-25T12:35:18.665Z,102240.49
2018-12-25T12:37:47.239Z,102247.59
2018-12-25T12:40:15.839Z,102242.70
2018-12-25T12:42:44.454Z,102246.69
2018-12-25T12:45:13.026Z,102240.92
2018-12-25T12:47:41.609Z,102247.13
2018-12-25T12:50:10.169Z,102245.38
2018-12-25T12:52:45.407Z,102249.80
2018-12-25T12:55:09.048Z,102247.13
2018-12-25T12:57:37.654Z,102240.92
2018-12-25T13:00:27.057Z,102251.14
2018-12-25T13:02:55.621Z,102252.47
2018-12-25T13:05:24.221Z,102251.56
2018-12-25T13:07:52.775Z,102251.59
2018-12-25T13:10:21.378Z,102258.69
2018-12-25T13:12:49.962Z,102256.89
2018-12-25T13:15:18.558Z,102255.12
2018-12-25T13:17:47.144Z,102251.58
2018-12-25T13:20:15.741Z,102248.92
2018-12-25T13:22:44.319Z,102246.25
2018-12-25T13:25:12.999Z,102251.13
2018-12-25T13:27:41.560Z,102250.68
2018-12-25T13:30:30.938Z,102249.80
2018-12-25T13:32:59.523Z,102248.90
2018-12-25T13:35:47.371Z,102244.03
2018-12-25T13:38:15.946Z,102260.02
2018-12-25T13:40:44.576Z,102252.03
2018-12-25T13:43:13.212Z,102254.25
2018-12-25T13:45:41.846Z,102252.02
2018-12-25T13:48:17.559Z,102261.78
2018-12-25T13:50:46.147Z,102260.00
2018-12-25T13:53:14.730Z,102257.78
2018-12-25T13:55:43.300Z,102264.45
2018-12-25T13:58:11.938Z,102254.67
2018-12-25T14:00:59.630Z,102257.80
2018-12-25T14:03:28.209Z,102260.91
2018-12-25T14:05:56.805Z,102262.67
2018-12-25T14:08:25.381Z,102276.86
2018-12-25T14:10:53.966Z,102280.87
2018-12-25T14:13:22.536Z,102273.33
2018-12-25T14:15:51.143Z,102268.43
2018-12-25T14:18:19.716Z,102273.77
2018-12-25T14:20:48.313Z,102276.84
2018-12-25T14:23:16.874Z,102276.85
2018-12-25T14:25:45.437Z,102275.09
2018-12-25T14:28:14.040Z,102276.41
2018-12-25T14:30:42.604Z,102279.97
2018-12-25T14:33:11.201Z,102268.88
2018-12-25T14:35:39.799Z,102271.54
2018-12-25T14:38:08.426Z,102273.75
2018-12-25T14:40:36.981Z,102272.41
2018-12-25T14:43:24.715Z,102268.85
2018-12-25T14:45:53.293Z,102267.95
2018-12-25T14:48:21.879Z,102272.84
2018-12-25T14:50:50.444Z,102280.42
2018-12-25T14:53:19.848Z,102271.53
2018-12-25T14:55:49.333Z,102280.83
2018-12-25T14:58:17.919Z,102275.08
2018-12-25T15:00:46.496Z,102279.45
2018-12-25T15:03:15.092Z,102278.17
2018-12-25T15:05:43.643Z,102280.39
2018-12-25T15:08:12.226Z,102279.05
2018-12-25T15:10:40.865Z,102268.41
2018-12-25T15:13:09.453Z,102264.41
2018-12-25T15:15:38.008Z,102269.31
2018-12-25T15:18:06.611Z,102264.34
2018-12-25T15:20:35.174Z,102263.53
2018-12-25T15:23:03.758Z,102265.29
2018-12-25T15:25:51.585Z,102269.73
2018-12-25T15:28:20.179Z,102271.07
2018-12-25T15:30:48.754Z,102275.06
2018-12-25T15:33:17.344Z,102270.55
2018-12-25T15:35:45.914Z,102267.02
2018-12-25T15:38:14.509Z,102273.69
2018-12-25T15:40:43.092Z,102275.03
2018-12-25T15:43:11.689Z,102273.69
2018-12-25T15:45:40.235Z,102268.40
2018-12-25T15:48:08.845Z,102275.05
2018-12-25T15:50:37.437Z,102275.50
2018-12-25T15:53:25.366Z,102273.73
2018-12-25T15:55:53.925Z,102271.88
2018-12-25T15:58:22.508Z,102268.80
2018-12-25T16:00:51.112Z,102274.16
2018-12-25T16:03:19.774Z,102269.28
2018-12-25T16:05:48.361Z,102270.14
2018-12-25T16:08:16.922Z,102267.50
2018-12-25T16:10:45.500Z,102273.66
2018-12-25T16:13:14.063Z,102257.69
2018-12-25T16:15:42.669Z,102266.61
2018-12-25T16:18:11.229Z,102261.76
2018-12-25T16:20:39.828Z,102256.45
2018-12-25T16:23:08.383Z,102257.75
2018-12-25T16:25:36.989Z,102253.34
2018-12-25T16:28:05.634Z,102255.12
2018-12-25T16:30:35.876Z,102251.57
2018-12-25T16:33:04.428Z,102255.11
2018-12-25T16:35:33.052Z,102256.00
2018-12-25T16:38:01.632Z,102247.98
2018-12-25T16:40:30.236Z,102255.09
2018-12-25T16:42:58.793Z,102249.79
2018-12-25T16:45:27.408Z,102241.80
2018-12-25T16:47:55.960Z,102253.31
2018-12-25T16:50:24.558Z,102251.98
2018-12-25T16:53:12.329Z,102254.22
2018-12-25T16:55:40.906Z,102248.41
2018-12-25T16:58:09.484Z,102255.55
2018-12-25T17:00:38.066Z,102246.60
2018-12-25T17:03:06.638Z,102256.82
2018-12-25T17:05:35.267Z,102245.32
2018-12-25T17:08:03.786Z,102248.83
2018-12-25T17:10:32.439Z,102256.37
2018-12-25T17:13:01.001Z,102255.02
2018-12-25T17:15:29.581Z,102249.73
2018-12-25T17:17:58.188Z,102248.38
2018-12-25T17:20:26.723Z,102244.84
2018-12-25T17:22:55.321Z,102246.17
2018-12-25T17:25:23.891Z,102243.48
2018-12-25T17:27:52.492Z,102249.72
2018-12-25T17:30:21.048Z,102252.86
2018-12-25T17:32:49.660Z,102250.19
2018-12-25T17:35:18.230Z,102258.64
2018-12-25T17:37:46.822Z,102263.06
2018-12-25T17:40:15.398Z,102260.87
2018-12-25T17:42:43.985Z,102263.06
2018-12-25T17:45:12.575Z,102266.16
2018-12-25T17:47:41.165Z,102267.48
2018-12-25T17:50:09.721Z,102261.24
2018-12-25T17:52:38.319Z,102264.34
2018-12-25T17:55:26.254Z,102262.56
2018-12-25T17:58:13.935Z,102264.82
2018-12-25T18:00:42.518Z,102271.94
2018-12-25T18:03:11.097Z,102271.05
2018-12-25T18:05:39.645Z,102269.23
2018-12-25T18:08:08.243Z,102274.14
2018-12-25T18:10:36.815Z,102276.38
2018-12-25T18:13:05.537Z,102268.34
2018-12-25T18:15:53.303Z,102263.91
2018-12-25T18:18:21.906Z,102271.00
2018-12-25T18:20:50.491Z,102265.24
2018-12-25T18:23:19.093Z,102268.81
2018-12-25T18:25:47.658Z,102263.06
2018-12-25T18:28:16.258Z,102274.16
2018-12-25T18:30:44.824Z,102260.41
2018-12-25T18:33:13.424Z,102264.40
2018-12-25T18:35:41.995Z,102258.58
2018-12-25T18:38:11.589Z,102270.11
2018-12-25T18:40:40.903Z,102261.25
2018-12-25T18:43:09.505Z,102265.67
2018-12-25T18:45:38.123Z,102257.70
2018-12-25T18:48:06.668Z,102264.80
2018-12-25T18:50:35.257Z,102263.02
2018-12-25T18:53:03.821Z,102259.92
2018-12-25T18:55:32.429Z,102266.58
2018-12-25T18:58:00.996Z,102259.03
2018-12-25T19:00:29.593Z,102257.23
2018-12-25T19:02:58.157Z,102261.23
2018-12-25T19:05:26.763Z,102252.36
2018-12-25T19:07:55.367Z,102257.70
2018-12-25T19:10:23.987Z,102254.58
2018-12-25T19:12:52.547Z,102251.03
2018-12-25T19:16:01.092Z,102247.46
2018-12-25T19:18:29.642Z,102245.68
2018-12-25T19:20:58.208Z,102265.20
2018-12-25T19:23:26.768Z,102265.20
2018-12-25T19:25:55.366Z,102259.02
2018-12-25T19:28:23.934Z,102271.43
2018-12-25T19:30:52.543Z,102277.20
2018-12-25T19:33:21.155Z,102275.41
2018-12-25T19:35:49.735Z,102272.31
2018-12-25T19:38:39.085Z,102276.30
2018-12-25T19:41:26.806Z,102273.63
2018-12-25T19:43:55.377Z,102285.61
2018-12-25T19:46:23.969Z,102270.97
2018-12-25T19:48:52.548Z,102275.41
2018-12-25T19:51:21.185Z,102285.62
2018-12-25T19:53:51.470Z,102274.97
2018-12-25T19:56:20.054Z,102290.93
2018-12-25T19:58:48.620Z,102279.87
2018-12-25T20:01:17.230Z,102291.39
2018-12-25T20:04:06.578Z,102278.05
2018-12-25T20:06:55.984Z,102277.19
2018-12-25T20:09:45.394Z,102286.52
2018-12-25T20:12:52.624Z,102277.63
2018-12-25T20:19:13.922Z,102268.78
2018-12-25T20:22:21.130Z,102270.54
2018-12-25T20:25:10.481Z,102275.42
2018-12-25T20:28:17.699Z,102275.41
2018-12-25T20:31:24.847Z,102273.65
2018-12-25T20:34:32.102Z,102266.56
2018-12-25T20:40:47.642Z,102264.32
2018-12-25T20:43:54.847Z,102271.00
2018-12-25T20:46:44.267Z,102273.22
2018-12-25T20:49:51.475Z,102264.78
2018-12-25T20:52:58.647Z,102264.34
2018-12-25T20:56:05.864Z,102250.59
2018-12-25T20:59:13.055Z,102258.59
2018-12-25T21:02:02.495Z,102248.84
2018-12-25T21:05:09.670Z,102243.51
2018-12-25T21:11:17.888Z,102234.19
2018-12-25T21:14:29.103Z,102242.17
2018-12-25T21:20:50.169Z,102238.62
2018-12-25T21:23:57.382Z,102241.73
2018-12-25T21:27:04.595Z,102238.62
2018-12-25T21:29:33.259Z,102242.61
2018-12-25T21:35:29.370Z,102221.78
2018-12-25T21:38:18.741Z,102228.42
2018-12-25T21:41:08.138Z,102239.08
2018-12-25T21:43:57.483Z,102229.38
2018-12-25T21:46:45.256Z,102224.48
2018-12-25T21:49:34.629Z,102219.13
2018-12-25T21:52:24.014Z,102235.96
2018-12-25T21:55:18.658Z,102229.73
2018-12-25T21:58:04.531Z,102225.80
2018-12-25T22:00:35.266Z,102224.48
2018-12-25T22:03:03.611Z,102237.73
2018-12-25T22:05:52.828Z,102242.20
2018-12-25T22:08:21.391Z,102232.47
2018-12-25T22:11:09.247Z,102232.89
2018-12-25T22:13:37.796Z,102242.69
2018-12-25T22:16:06.422Z,102230.69
2018-12-25T22:18:34.952Z,102226.69
2018-12-25T22:21:03.560Z,102230.26
2018-12-25T22:23:52.462Z,102222.27
2018-12-25T22:26:21.659Z,102229.36
2018-12-25T22:28:50.246Z,102220.05
2018-12-25T22:31:18.826Z,102219.13
2018-12-25T22:33:47.388Z,102216.92
2018-12-25T22:36:15.983Z,102215.19
2018-12-25T22:38:44.563Z,102214.29
2018-12-25T22:41:13.114Z,102214.73
2018-12-25T22:43:41.711Z,102223.61
2018-12-25T22:46:10.284Z,102216.50
2018-12-25T22:48:38.862Z,102217.82
2018-12-25T22:51:07.436Z,102211.18
2018-12-25T22:53:36.060Z,102207.20
2018-12-25T22:56:04.626Z,102204.52
2018-12-25T22:58:33.214Z,102198.31
2018-12-25T23:01:22.579Z,102200.08
2018-12-25T23:03:51.134Z,102189.00
2018-12-25T23:06:19.884Z,102181.44
2018-12-25T23:08:48.459Z,102182.34
2018-12-25T23:11:17.019Z,102177.91
2018-12-25T23:13:45.625Z,102191.66
2018-12-25T23:16:15.952Z,102182.33
2018-12-25T23:19:03.654Z,102185.44
2018-12-25T23:21:32.212Z,102190.78
2018-12-25T23:24:00.849Z,102177.02
2018-12-25T23:26:29.384Z,102184.12
2018-12-25T23:28:58.077Z,102174.38
2018-12-25T23:31:26.621Z,102179.70
2018-12-25T23:33:55.207Z,102179.67
2018-12-25T23:36:23.789Z,102184.11
2018-12-25T23:38:52.412Z,102181.47
2018-12-25T23:41:20.939Z,102185.45
2018-12-25T23:43:49.522Z,102175.25
2018-12-25T23:46:18.082Z,102171.24
2018-12-25T23:48:46.659Z,102167.70
2018-12-25T23:51:15.230Z,102158.82
2018-12-25T23:53:43.816Z,102159.28
2018-12-25T23:56:12.390Z,102155.28
2018-12-25T23:58:40.989Z,102149.50
